Time;durP1;ratioP1;P1;durP2;ratioP2;P2;SDS_P1;SDS_P2;PMS_P1;PMS_P2;Temp;Humidity;BMP_temperature;BMP_pressure;BME280_temperature;BME280_humidity;BME280_pressure;Samples;Min_cycle;Max_cycle;Signal;HPM_P1;HPM_P2
2022/07/28 00:02:09;;;;;;;3.40;2.75;;;;;;;14.06;61.14;99843.78;5028518;28;20416;-71
2022/07/28 00:04:37;;;;;;;9.88;3.28;;;;;;;14.07;61.49;99844.63;5027575;28;20042;-74
2022/07/28 00:07:03;;;;;;;5.80;3.13;;;;;;;14.01;61.72;99840.56;5022953;28;20472;-71
2022/07/28 00:09:30;;;;;;;5.68;3.88;;;;;;;13.95;61.75;99841.81;5008661;28;20144;-72
2022/07/28 00:11:57;;;;;;;6.25;3.55;;;;;;;13.93;61.77;99837.50;5008655;28;20077;-72
2022/07/28 00:14:24;;;;;;;4.97;3.10;;;;;;;13.89;62.84;99836.88;5008206;28;20042;-71
2022/07/28 00:16:50;;;;;;;5.88;3.67;;;;;;;13.88;62.08;99834.31;5008803;28;20050;-73
2022/07/28 00:19:17;;;;;;;5.60;2.70;;;;;;;13.86;62.50;99836.22;5008555;28;20085;-72
2022/07/28 00:21:45;;;;;;;6.30;3.50;;;;;;;13.84;62.49;99830.16;5008546;28;20046;-73
2022/07/28 00:24:12;;;;;;;9.43;3.10;;;;;;;13.84;62.69;99825.69;5007839;28;20050;-71
2022/07/28 00:26:39;;;;;;;5.55;3.13;;;;;;;13.83;62.34;99817.84;5008629;28;20042;-73
2022/07/28 00:29:07;;;;;;;6.95;3.45;;;;;;;13.85;62.33;99815.94;5008456;28;20085;-73
2022/07/28 00:31:33;;;;;;;11.75;3.85;;;;;;;13.93;61.56;99813.66;5008243;28;20049;-72
2022/07/28 00:34:00;;;;;;;8.10;3.83;;;;;;;13.95;60.74;99831.19;5011620;28;20055;-72
2022/07/28 00:36:27;;;;;;;18.05;3.95;;;;;;;14.00;61.08;99824.75;5027936;28;20064;-73
2022/07/28 00:38:54;;;;;;;7.20;3.38;;;;;;;14.03;61.18;99827.19;5027947;28;20049;-73
2022/07/28 00:41:22;;;;;;;8.32;3.67;;;;;;;14.01;61.20;99822.00;5027732;28;20420;-72
2022/07/28 00:43:51;;;;;;;7.85;4.05;;;;;;;14.00;61.71;99819.44;5023247;28;20057;-71
2022/07/28 00:46:20;;;;;;;10.30;4.10;;;;;;;14.01;61.27;99823.81;5007789;28;20050;-71
2022/07/28 00:48:49;;;;;;;7.70;3.22;;;;;;;14.00;61.30;99819.44;5016539;28;20608;-72
2022/07/28 00:51:17;;;;;;;7.30;3.72;;;;;;;13.99;62.03;99813.28;5027828;28;20056;-72
2022/07/28 00:53:43;;;;;;;8.23;3.75;;;;;;;14.02;61.54;99810.44;5027860;28;20045;-72
2022/07/28 00:56:11;;;;;;;5.97;2.67;;;;;;;14.04;61.42;99813.84;5027107;28;20053;-73
2022/07/28 00:58:39;;;;;;;6.40;2.85;;;;;;;14.09;61.07;99808.25;5027373;28;20561;-74
2022/07/28 01:01:06;;;;;;;8.07;3.00;;;;;;;14.15;61.17;99816.69;5027566;28;20133;-71
2022/07/28 01:03:36;;;;;;;7.53;3.13;;;;;;;14.22;60.87;99813.63;5027621;28;20049;-72
2022/07/28 01:06:10;;;;;;;10.93;3.30;;;;;;;14.32;59.90;99812.97;5026863;28;20080;-71
2022/07/28 01:08:47;;;;;;;5.15;2.90;;;;;;;14.37;60.18;99808.22;5009703;28;20053;-72
2022/07/28 01:11:26;;;;;;;7.35;3.15;;;;;;;14.44;60.01;99808.63;5007851;28;20049;-71
2022/07/28 01:14:02;;;;;;;7.65;3.72;;;;;;;14.46;59.58;99809.41;5007420;28;20729;-71
2022/07/28 01:16:29;;;;;;;10.70;2.65;;;;;;;14.48;59.29;99814.63;5007902;28;20565;-71
2022/07/28 01:19:04;;;;;;;10.80;2.75;;;;;;;14.57;59.07;99808.72;5007801;28;20061;-73
2022/07/28 01:21:35;;;;;;;5.50;2.85;;;;;;;14.60;59.19;99806.72;5014301;28;20642;-72
2022/07/28 01:24:14;;;;;;;8.10;3.17;;;;;;;14.66;58.83;99802.81;5011229;28;20132;-72
2022/07/28 01:26:53;;;;;;;8.57;3.05;;;;;;;14.71;58.45;99805.16;5011701;28;20096;-72
2022/07/28 01:29:43;;;;;;;10.15;2.75;;;;;;;14.79;58.07;99801.06;5011875;28;20140;-71
2022/07/28 01:32:16;;;;;;;5.18;2.67;;;;;;;14.85;57.65;99806.91;5011532;28;20141;-72
2022/07/28 01:34:57;;;;;;;6.95;2.83;;;;;;;14.87;57.46;99800.56;5010930;28;20048;-72
2022/07/28 01:37:26;;;;;;;7.57;3.30;;;;;;;14.93;57.45;99793.97;5011395;28;20050;-72
2022/07/28 01:39:56;;;;;;;8.18;2.50;;;;;;;14.97;57.19;99791.00;5011211;28;20136;-71
2022/07/28 01:42:26;;;;;;;9.30;3.80;;;;;;;14.99;57.23;99793.56;5011674;28;20056;-72
2022/07/28 01:44:55;;;;;;;7.03;2.60;;;;;;;15.01;57.09;99789.00;5012975;28;20046;-71
2022/07/28 01:47:25;;;;;;;6.13;2.92;;;;;;;15.01;57.65;99789.00;5030999;28;20067;-72
2022/07/28 01:49:53;;;;;;;3.63;2.03;;;;;;;15.02;57.70;99786.25;5031034;28;20046;-72
2022/07/28 01:52:20;;;;;;;8.43;3.20;;;;;;;15.10;57.39;99787.53;5030786;28;20164;-72
2022/07/28 01:54:47;;;;;;;9.30;3.90;;;;;;;15.14;57.17;99781.91;5030176;28;20140;-71
2022/07/28 01:57:16;;;;;;;6.72;3.22;;;;;;;15.17;56.94;99778.19;5030777;28;20141;-71
2022/07/28 01:59:43;;;;;;;12.18;3.05;;;;;;;15.13;57.71;99784.66;5030307;28;20047;-71
2022/07/28 02:02:11;;;;;;;17.25;3.17;;;;;;;15.13;56.91;99784.66;5030720;28;20140;-72
2022/07/28 02:04:41;;;;;;;17.90;2.78;;;;;;;15.12;57.19;99777.66;5029751;28;20144;-71
2022/07/28 02:07:10;;;;;;;11.88;4.32;;;;;;;15.08;58.01;99781.47;5025032;28;20061;-71
2022/07/28 02:09:37;;;;;;;7.05;3.42;;;;;;;15.08;57.78;99781.47;5010627;28;20473;-72
2022/07/28 02:12:06;;;;;;;10.48;2.75;;;;;;;15.09;57.58;99778.72;5010667;28;20076;-72
2022/07/28 02:14:35;;;;;;;11.07;3.22;;;;;;;15.12;57.51;99783.81;5010075;28;20501;-72
2022/07/28 02:17:07;;;;;;;8.05;2.85;;;;;;;15.17;57.44;99776.38;5010314;28;20051;-73
2022/07/28 02:19:35;;;;;;;8.52;2.90;;;;;;;15.19;57.07;99776.28;5010388;28;20521;-72
2022/07/28 02:22:04;;;;;;;9.90;3.70;;;;;;;15.16;56.98;99768.50;5010430;28;20674;-71
2022/07/28 02:24:33;;;;;;;16.92;3.80;;;;;;;15.11;57.24;99773.28;5009812;28;20054;-71
2022/07/28 02:27:03;;;;;;;19.83;3.92;;;;;;;15.08;57.18;99768.19;5010387;28;20046;-71
2022/07/28 02:29:36;;;;;;;9.70;2.95;;;;;;;15.10;57.34;99767.13;5010483;28;20046;-72
2022/07/28 02:32:07;;;;;;;6.90;3.05;;;;;;;15.15;57.21;99766.81;5010389;28;20060;-71
2022/07/28 02:34:37;;;;;;;12.63;3.33;;;;;;;15.12;57.37;99759.91;5029128;28;20053;-70
2022/07/28 02:37:08;;;;;;;16.33;3.35;;;;;;;15.14;57.13;99760.66;5030381;28;20045;-72
2022/07/28 02:39:40;;;;;;;9.35;2.75;;;;;;;15.06;57.60;99762.13;5029950;28;20072;-71
2022/07/28 02:42:11;;;;;;;5.28;3.13;;;;;;;15.05;57.70;99753.31;5026624;28;20053;-71
2022/07/28 02:44:42;;;;;;;16.40;3.30;;;;;;;15.01;58.02;99759.78;5029549;28;20140;-71
2022/07/28 02:47:11;;;;;;;7.35;2.60;;;;;;;14.92;57.73;99750.66;5030137;28;20740;-71
2022/07/28 02:49:40;;;;;;;11.00;2.75;;;;;;;14.88;58.08;99748.31;5030052;28;20041;-73
2022/07/28 02:52:11;;;;;;;7.93;2.70;;;;;;;14.86;58.31;99751.06;5029731;28;20050;-70
2022/07/28 02:54:39;;;;;;;6.97;2.75;;;;;;;14.81;58.51;99754.03;5013031;28;20050;-72
2022/07/28 02:57:07;;;;;;;8.40;2.60;;;;;;;14.86;58.14;99750.22;5009952;28;20584;-70
2022/07/28 02:59:36;;;;;;;5.63;2.55;;;;;;;14.89;57.76;99739.38;5009470;28;20142;-71
2022/07/28 03:02:03;;;;;;;3.85;2.30;;;;;;;14.88;58.24;99743.84;5009936;28;20041;-72
2022/07/28 03:07:16;;;;;;;10.00;2.70;;;;;;;14.87;58.19;99744.81;5015856;28;20048;-71
2022/07/28 03:09:44;;;;;;;5.70;2.20;;;;;;;14.83;58.07;99759.25;5029366;28;20118;-72
2022/07/28 03:12:11;;;;;;;10.57;3.30;;;;;;;14.76;58.83;99756.13;5029420;28;20176;-71
2022/07/28 03:14:38;;;;;;;7.45;2.85;;;;;;;14.72;58.78;99744.03;5027524;28;20045;-71
2022/07/28 03:17:05;;;;;;;7.00;2.28;;;;;;;14.69;58.87;99744.22;5027115;28;20056;-71
2022/07/28 03:19:32;;;;;;;21.17;3.38;;;;;;;14.68;59.04;99747.00;5029104;28;20053;-71
2022/07/28 03:21:58;;;;;;;5.90;2.47;;;;;;;14.69;58.79;99743.38;5029179;28;20057;-72
2022/07/28 03:24:29;;;;;;;3.75;2.40;;;;;;;14.66;59.10;99746.25;5028325;28;20056;-72
2022/07/28 03:27:02;;;;;;;9.68;2.60;;;;;;;14.60;59.26;99740.41;5029278;28;20052;-72
2022/07/28 03:29:32;;;;;;;10.43;2.72;;;;;;;14.60;59.08;99750.16;5029648;28;20110;-72
2022/07/28 03:32:00;;;;;;;9.20;2.50;;;;;;;14.60;59.45;99750.16;5029855;28;20472;-71
2022/07/28 03:34:28;;;;;;;6.93;2.85;;;;;;;14.55;59.61;99741.66;5028903;28;20053;-71
2022/07/28 03:37:00;;;;;;;10.75;3.53;;;;;;;14.48;59.81;99743.84;5029025;28;20054;-73
2022/07/28 03:39:32;;;;;;;7.15;3.47;;;;;;;14.45;59.54;99753.78;5030009;28;20049;-73
2022/07/28 03:42:00;;;;;;;7.57;2.72;;;;;;;14.38;60.21;99746.25;5030089;28;20049;-71
2022/07/28 03:44:28;;;;;;;5.30;2.85;;;;;;;14.33;60.30;99744.84;5030480;28;20420;-72
2022/07/28 03:46:55;;;;;;;6.63;2.65;;;;;;;14.31;60.58;99746.75;5030460;28;20051;-72
2022/07/28 03:49:22;;;;;;;13.85;2.90;;;;;;;14.29;60.60;99746.00;5029543;28;20056;-73
2022/07/28 03:51:49;;;;;;;5.75;2.95;;;;;;;14.27;60.78;99743.44;5029560;28;20434;-72
2022/07/28 03:54:15;;;;;;;9.75;3.75;;;;;;;14.24;60.70;99748.94;5028280;28;20213;-72
2022/07/28 03:56:43;;;;;;;7.82;3.10;;;;;;;14.22;60.96;99742.03;5028691;28;20564;-73
2022/07/28 03:59:11;;;;;;;4.95;2.58;;;;;;;14.26;60.69;99748.84;5028068;28;20088;-73
2022/07/28 04:01:38;;;;;;;6.00;2.80;;;;;;;14.30;60.13;99745.03;5028907;28;20056;-72
2022/07/28 04:04:05;;;;;;;3.75;2.70;;;;;;;14.30;60.21;99747.69;5029026;28;20055;-72
2022/07/28 04:06:32;;;;;;;9.85;4.10;;;;;;;14.28;60.61;99737.19;5028666;28;20071;-73
2022/07/28 04:08:58;;;;;;;7.53;2.72;;;;;;;14.22;60.90;99744.69;5008588;28;20608;-73
2022/07/28 04:11:25;;;;;;;7.30;3.28;;;;;;;14.17;61.21;99743.19;5008425;28;20088;-71
2022/07/28 04:13:53;;;;;;;6.10;2.90;;;;;;;14.18;61.13;99742.25;5007817;28;20141;-72
2022/07/28 04:16:19;;;;;;;7.80;3.90;;;;;;;14.17;61.22;99737.88;5008159;28;20054;-71
2022/07/28 04:18:46;;;;;;;7.70;3.85;;;;;;;14.21;61.39;99740.34;5008344;28;20388;-71
2022/07/28 04:21:13;;;;;;;12.43;3.72;;;;;;;14.21;62.13;99735.88;5008410;28;20045;-71
2022/07/28 04:23:39;;;;;;;9.50;3.55;;;;;;;14.19;61.84;99745.75;5008370;28;20046;-72
2022/07/28 04:26:06;;;;;;;5.05;2.88;;;;;;;14.22;61.02;99740.22;5007441;28;20053;-73
2022/07/28 04:28:33;;;;;;;11.00;4.20;;;;;;;14.22;61.73;99734.94;5008044;28;20248;-74
2022/07/28 04:31:01;;;;;;;6.45;3.00;;;;;;;14.18;61.63;99736.09;5008148;28;20050;-71
2022/07/28 04:33:28;;;;;;;8.00;3.47;;;;;;;14.19;61.70;99735.13;5013918;28;20501;-74
2022/07/28 04:35:54;;;;;;;8.52;4.10;;;;;;;14.16;61.81;99735.34;5027133;28;20056;-72
2022/07/28 04:38:21;;;;;;;6.10;3.38;;;;;;;14.21;61.81;99735.88;5027825;28;20052;-70
2022/07/28 04:40:48;;;;;;;5.32;3.67;;;;;;;14.20;61.26;99730.69;5027746;28;20056;-74
2022/07/28 04:43:15;;;;;;;7.75;2.90;;;;;;;14.23;60.83;99734.00;5027902;28;20045;-73
2022/07/28 04:45:41;;;;;;;10.20;3.75;;;;;;;14.23;61.22;99735.81;5027093;28;20049;-74
2022/07/28 04:48:11;;;;;;;9.00;3.17;;;;;;;14.27;61.22;99730.16;5028041;28;20496;-73
2022/07/28 04:50:39;;;;;;;8.25;2.80;;;;;;;14.36;60.49;99728.72;5027841;28;20413;-73
2022/07/28 04:53:06;;;;;;;6.78;3.13;;;;;;;14.36;60.34;99734.88;5027977;28;20069;-72
2022/07/28 04:55:33;;;;;;;6.63;3.40;;;;;;;14.40;60.35;99743.50;5027061;28;20053;-72
2022/07/28 04:57:59;;;;;;;7.53;2.97;;;;;;;14.46;60.14;99748.38;5014040;28;20053;-73
2022/07/28 05:00:26;;;;;;;7.93;3.40;;;;;;;14.49;60.41;99745.53;5007700;28;20049;-72
2022/07/28 05:02:52;;;;;;;7.38;3.80;;;;;;;14.52;59.85;99736.50;5008085;28;20053;-73
2022/07/28 05:05:20;;;;;;;11.00;3.50;;;;;;;14.50;60.14;99739.28;5007482;28;20054;-72
2022/07/28 05:07:47;;;;;;;8.70;3.28;;;;;;;14.52;60.51;99744.47;5018459;28;20056;-75
2022/07/28 05:10:13;;;;;;;10.48;3.40;;;;;;;14.47;60.59;99742.16;5027284;28;20136;-75
2022/07/28 05:12:40;;;;;;;11.65;4.18;;;;;;;14.44;60.13;99744.97;5027822;28;20057;-74
2022/07/28 05:15:08;;;;;;;11.10;3.10;;;;;;;14.50;59.58;99735.78;5023856;28;20053;-76
2022/07/28 05:17:36;;;;;;;8.73;3.50;;;;;;;14.47;59.61;99742.16;5027804;28;20085;-73
2022/07/28 05:20:03;;;;;;;11.00;3.58;;;;;;;14.43;59.65;99742.44;5027647;28;20045;-74
2022/07/28 05:22:41;;;;;;;6.35;3.25;;;;;;;14.50;59.74;99743.75;5027615;28;20053;-72
2022/07/28 05:25:13;;;;;;;7.95;3.20;;;;;;;14.55;59.69;99739.88;5026944;28;20367;-73
2022/07/28 05:27:39;;;;;;;7.82;3.55;;;;;;;14.62;59.25;99742.09;5027730;28;20091;-71
2022/07/28 05:30:08;;;;;;;10.32;3.72;;;;;;;14.64;59.44;99734.88;5022181;28;20054;-73
2022/07/28 05:32:34;;;;;;;8.10;3.95;;;;;;;14.68;59.25;99736.38;5027778;28;20049;-72
2022/07/28 05:35:01;;;;;;;6.57;3.33;;;;;;;14.70;59.22;99738.00;5026903;28;20072;-74
2022/07/28 05:37:27;;;;;;;9.02;3.38;;;;;;;14.85;59.12;99743.22;5027638;28;20045;-72
2022/07/28 05:39:56;;;;;;;6.88;3.45;;;;;;;14.91;58.52;99743.63;5027612;28;20696;-74
2022/07/28 05:42:24;;;;;;;10.55;3.88;;;;;;;14.94;58.41;99739.91;5027001;28;20056;-74
2022/07/28 05:44:50;;;;;;;17.33;4.70;;;;;;;15.03;57.98;99744.59;5026410;28;20060;-73
2022/07/28 05:47:17;;;;;;;8.93;4.22;;;;;;;15.10;57.80;99742.38;5027282;28;20037;-73
2022/07/28 05:49:44;;;;;;;9.20;4.13;;;;;;;15.10;57.78;99753.84;5026888;28;20060;-72
2022/07/28 05:52:10;;;;;;;8.80;3.78;;;;;;;15.17;57.53;99746.31;5027036;28;20056;-71
2022/07/28 05:54:37;;;;;;;8.32;3.70;;;;;;;15.28;57.29;99745.56;5026478;28;20056;-72
2022/07/28 05:57:05;;;;;;;5.95;3.00;;;;;;;15.36;57.42;99743.25;5026890;28;20052;-72
2022/07/28 05:59:31;;;;;;;7.78;3.80;;;;;;;15.45;57.14;99742.59;5026604;28;20565;-71
2022/07/28 06:02:00;;;;;;;11.02;3.88;;;;;;;15.55;57.32;99738.31;5026963;28;20799;-71
2022/07/28 06:04:26;;;;;;;6.88;3.03;;;;;;;15.68;59.19;99735.66;5026182;28;20050;-71
2022/07/28 06:06:53;;;;;;;7.57;3.28;;;;;;;15.74;56.95;99740.56;5026478;28;20041;-71
2022/07/28 06:09:20;;;;;;;8.35;3.50;;;;;;;15.81;55.63;99739.16;5010757;28;20100;-71
2022/07/28 06:11:48;;;;;;;6.20;3.15;;;;;;;15.80;55.55;99736.59;5010910;28;20046;-72
2022/07/28 06:14:16;;;;;;;5.32;2.95;;;;;;;15.87;55.25;99728.09;5009926;28;20517;-73
2022/07/28 06:16:43;;;;;;;8.70;2.88;;;;;;;15.91;56.54;99738.50;5010685;28;20052;-71
2022/07/28 06:19:10;;;;;;;4.90;2.83;;;;;;;15.95;55.34;99735.53;5010553;28;20169;-71
2022/07/28 06:21:36;;;;;;;10.00;3.40;;;;;;;16.00;55.30;99743.19;5010642;28;20052;-73
2022/07/28 06:24:03;;;;;;;6.38;2.33;;;;;;;16.01;55.20;99732.41;5010406;28;20140;-72
2022/07/28 06:26:31;;;;;;;6.78;3.47;;;;;;;16.15;54.92;99746.53;5017973;28;20466;-73
2022/07/28 06:28:58;;;;;;;10.45;4.05;;;;;;;16.25;55.10;99743.06;5030390;28;20560;-72
2022/07/28 06:31:26;;;;;;;8.13;3.15;;;;;;;16.29;54.49;99741.03;5030181;28;20416;-73
2022/07/28 06:33:52;;;;;;;8.10;3.05;;;;;;;16.25;54.88;99736.91;5030099;28;20053;-72
2022/07/28 06:36:19;;;;;;;5.63;3.13;;;;;;;16.29;54.81;99749.88;5029827;28;20049;-72
2022/07/28 06:38:45;;;;;;;7.50;3.83;;;;;;;16.31;53.83;99741.75;5029992;28;20049;-73
2022/07/28 06:41:12;;;;;;;7.95;3.30;;;;;;;16.32;54.11;99743.47;5029798;28;20499;-73
2022/07/28 06:43:38;;;;;;;6.00;3.17;;;;;;;16.42;54.26;99739.16;5029404;28;20156;-73
2022/07/28 06:46:05;;;;;;;11.60;3.30;;;;;;;16.42;54.21;99743.66;5029116;28;20672;-73
2022/07/28 06:48:36;;;;;;;9.82;3.08;;;;;;;16.56;54.18;99739.94;5027938;28;20045;-72
2022/07/28 06:51:02;;;;;;;6.07;2.88;;;;;;;16.61;53.70;99740.44;5010306;28;20050;-71
2022/07/28 06:53:29;;;;;;;4.68;2.72;;;;;;;16.73;53.76;99736.84;5010003;28;20049;-71
2022/07/28 06:55:56;;;;;;;8.10;2.90;;;;;;;16.91;52.94;99730.19;5009237;28;20050;-71
2022/07/28 06:58:22;;;;;;;5.30;3.20;;;;;;;17.00;54.10;99735.75;5009908;28;20045;-71
2022/07/28 07:00:49;;;;;;;8.35;3.17;;;;;;;17.08;52.36;99730.69;5009347;28;20046;-73
2022/07/28 07:03:15;;;;;;;7.97;3.47;;;;;;;17.01;52.33;99730.31;5009779;28;20049;-74
2022/07/28 07:05:43;;;;;;;13.55;3.33;;;;;;;17.06;52.51;99727.31;5008883;28;20050;-74
2022/07/28 07:08:10;;;;;;;8.43;2.95;;;;;;;17.27;52.34;99730.09;5023239;28;20045;-73
2022/07/28 07:10:36;;;;;;;10.27;3.67;;;;;;;17.30;51.98;99728.06;5029178;28;20053;-73
2022/07/28 07:13:03;;;;;;;9.90;3.20;;;;;;;17.31;52.84;99728.91;5029012;28;20045;-73
2022/07/28 07:15:30;;;;;;;14.73;4.50;;;;;;;17.36;51.94;99737.38;5028488;28;20065;-72
2022/07/28 07:17:56;;;;;;;5.15;2.83;;;;;;;17.46;52.50;99732.19;5025456;28;20050;-59
2022/07/28 07:20:23;;;;;;;8.27;3.33;;;;;;;17.68;52.41;99729.50;5016626;28;20052;-60
2022/07/28 07:22:51;;;;;;;7.97;2.88;;;;;;;18.03;50.68;99720.53;5020108;28;20061;-58
2022/07/28 07:25:18;;;;;;;16.33;4.90;;;;;;;18.31;53.82;99720.91;5028132;28;20056;-54
2022/07/28 07:27:46;;;;;;;8.30;2.70;;;;;;;18.45;49.33;99723.31;5028493;28;20049;-64
2022/07/28 07:30:14;;;;;;;6.38;3.20;;;;;;;18.52;49.18;99724.50;5028892;28;20059;-65
2022/07/28 07:32:41;;;;;;;10.45;2.92;;;;;;;18.69;48.93;99716.91;5028687;28;20052;-55
2022/07/28 07:35:09;;;;;;;10.35;5.97;;;;;;;18.97;49.41;99716.25;5028220;28;20560;-64
2022/07/28 07:37:35;;;;;;;11.50;4.90;;;;;;;19.14;47.62;99722.00;5028000;28;20101;-65
2022/07/28 07:40:06;;;;;;;15.15;7.88;;;;;;;18.99;47.80;99714.31;5028121;28;20051;-65
2022/07/28 07:42:32;;;;;;;9.80;4.50;;;;;;;18.99;47.63;99719.66;5028793;28;20049;-65
2022/07/28 07:44:59;;;;;;;5.75;2.97;;;;;;;19.00;47.54;99721.38;5028203;28;20055;-65
2022/07/28 07:47:26;;;;;;;8.75;3.58;;;;;;;18.94;47.28;99713.88;5028942;28;20049;-64
2022/07/28 07:49:52;;;;;;;7.47;2.97;;;;;;;19.01;47.21;99704.34;5028639;28;20049;-62
2022/07/28 07:52:19;;;;;;;7.35;3.30;;;;;;;19.04;47.10;99703.25;5027732;28;20060;-63
2022/07/28 07:54:46;;;;;;;9.98;3.13;;;;;;;19.36;46.25;99696.94;5027525;28;20493;-59
2022/07/28 07:57:14;;;;;;;6.35;2.58;;;;;;;19.22;46.23;99682.09;5028229;28;20047;-61
2022/07/28 07:59:40;;;;;;;7.90;2.92;;;;;;;19.19;46.59;99691.22;5028003;28;20060;-58
2022/07/28 08:02:07;;;;;;;5.60;2.72;;;;;;;19.30;46.93;99688.47;5028660;28;20058;-62
2022/07/28 08:04:34;;;;;;;8.88;4.18;;;;;;;19.49;45.73;99694.88;5027763;28;20056;-62
2022/07/28 08:07:00;;;;;;;5.13;2.53;;;;;;;19.55;45.72;99702.38;5023637;28;20040;-64
2022/07/28 08:09:27;;;;;;;6.53;3.03;;;;;;;19.70;45.30;99703.69;5008489;28;20056;-61
2022/07/28 08:11:53;;;;;;;9.65;3.83;;;;;;;19.97;44.90;99696.88;5008652;28;20153;-63
2022/07/28 08:14:21;;;;;;;7.55;3.40;;;;;;;20.44;43.34;99704.25;5008758;28;20465;-68
2022/07/28 08:16:48;;;;;;;11.98;4.15;;;;;;;20.61;43.09;99703.56;5008896;28;20080;-68
2022/07/28 08:19:15;;;;;;;9.88;2.67;;;;;;;20.52;42.87;99701.72;5014396;28;20460;-68
2022/07/28 08:21:41;;;;;;;7.00;2.92;;;;;;;20.75;42.85;99697.78;5028531;28;20056;-69
2022/07/28 08:24:08;;;;;;;10.40;2.92;;;;;;;20.78;42.07;99700.16;5027349;28;20741;-68
2022/07/28 08:26:35;;;;;;;7.80;2.83;;;;;;;20.99;42.29;99705.38;5028205;28;20060;-68
2022/07/28 08:29:01;;;;;;;6.25;3.47;;;;;;;20.93;41.89;99697.06;5027855;28;20049;-69
2022/07/28 08:31:29;;;;;;;18.58;6.53;;;;;;;20.95;42.31;99708.47;5028074;28;20060;-67
2022/07/28 08:33:57;;;;;;;13.80;3.50;;;;;;;20.79;41.69;99701.00;5027467;28;20121;-68
2022/07/28 08:36:23;;;;;;;8.60;2.60;;;;;;;20.74;41.96;99708.63;5027340;28;20103;-67
2022/07/28 08:38:50;;;;;;;12.15;3.22;;;;;;;20.74;41.76;99714.84;5028171;28;20556;-69
2022/07/28 08:41:22;;;;;;;4.75;2.72;;;;;;;20.80;41.70;99705.41;5023127;28;20042;-69
2022/07/28 08:43:52;;;;;;;18.60;5.18;;;;;;;20.89;41.84;99701.00;5008280;28;20052;-70
2022/07/28 08:46:20;;;;;;;10.90;3.13;;;;;;;20.83;41.43;99701.59;5008741;28;20053;-68
2022/07/28 08:48:50;;;;;;;7.38;3.20;;;;;;;20.73;41.95;99693.56;5008497;28;20046;-68
2022/07/28 08:51:18;;;;;;;4.88;2.42;;;;;;;20.83;41.31;99694.38;5008050;28;20505;-68
2022/07/28 08:53:46;;;;;;;7.72;1.92;;;;;;;21.02;40.92;99677.44;5024768;28;20417;-69
2022/07/28 08:56:14;;;;;;;13.25;3.28;;;;;;;21.04;41.38;99680.78;5027000;28;20055;-69
2022/07/28 08:58:41;;;;;;;8.23;2.70;;;;;;;21.17;41.29;99675.13;5027202;28;20080;-69
2022/07/28 09:01:09;;;;;;;8.23;2.85;;;;;;;21.57;40.55;99674.00;5027726;28;20413;-69
2022/07/28 09:03:37;;;;;;;16.58;3.17;;;;;;;21.82;40.02;99681.34;5027640;28;20057;-69
2022/07/28 09:06:05;;;;;;;8.90;3.35;;;;;;;22.29;39.36;99680.34;5027093;28;20057;-69
2022/07/28 09:08:32;;;;;;;6.93;2.80;;;;;;;22.43;39.38;99677.13;5010832;28;20111;-69
2022/07/28 09:10:59;;;;;;;18.42;3.38;;;;;;;22.67;38.00;99681.84;5008072;28;20468;-69
2022/07/28 09:13:25;;;;;;;9.48;2.75;;;;;;;23.05;38.13;99685.16;5010372;28;20056;-70
2022/07/28 09:15:52;;;;;;;8.43;3.28;;;;;;;23.35;36.70;99691.06;5017448;28;20136;-69
2022/07/28 09:18:19;;;;;;;6.45;3.05;;;;;;;23.82;35.62;99687.91;5027581;28;20041;-68
2022/07/28 09:20:46;;;;;;;8.30;3.03;;;;;;;24.15;34.96;99675.38;5027338;28;20657;-68
2022/07/28 09:23:14;;;;;;;7.13;2.50;;;;;;;24.90;33.63;99670.88;5027433;28;20431;-68
2022/07/28 09:25:40;;;;;;;5.30;2.72;;;;;;;25.59;33.02;99672.03;5027022;28;20056;-69
2022/07/28 09:28:09;;;;;;;8.00;3.20;;;;;;;25.92;33.39;99667.38;5027279;28;20065;-69
2022/07/28 09:30:39;;;;;;;14.80;3.22;;;;;;;26.42;32.81;99661.63;5027283;28;20588;-68
2022/07/28 09:33:13;;;;;;;14.27;3.22;;;;;;;25.90;32.82;99674.81;5027225;28;20059;-68
2022/07/28 09:35:47;;;;;;;8.80;3.13;;;;;;;25.64;32.65;99666.97;5026729;28;20059;-69
2022/07/28 09:38:16;;;;;;;5.47;2.75;;;;;;;26.09;31.64;99657.31;5027617;28;20409;-68
2022/07/28 09:40:44;;;;;;;11.50;4.00;;;;;;;26.41;31.72;99663.50;5031383;28;20049;-67
2022/07/28 09:43:10;;;;;;;17.30;3.22;;;;;;;26.63;32.24;99658.25;5034119;28;20045;-68
2022/07/28 09:45:37;;;;;;;5.47;2.50;;;;;;;26.95;31.11;99665.22;5036835;28;20112;-68
2022/07/28 09:48:12;;;;;;;7.13;3.00;;;;;;;27.12;30.55;99655.06;5038704;28;20137;-69
2022/07/28 09:50:39;;;;;;;7.40;2.70;;;;;;;27.33;29.83;99665.19;5038571;28;20057;-69
2022/07/28 09:53:24;;;;;;;10.85;3.00;;;;;;;27.34;29.35;99647.91;5035854;28;20083;-69
2022/07/28 09:55:54;;;;;;;11.02;3.40;;;;;;;27.25;29.77;99654.47;5033229;28;20056;-68
2022/07/28 09:58:21;;;;;;;9.15;3.20;;;;;;;27.04;30.29;99658.72;5037272;28;20042;-69
2022/07/28 10:00:48;;;;;;;7.20;2.75;;;;;;;27.38;29.78;99647.34;5034435;28;20060;-68
2022/07/28 10:03:24;;;;;;;16.23;3.33;;;;;;;27.05;30.54;99646.00;5031768;28;20053;-69
2022/07/28 10:05:51;;;;;;;8.07;3.10;;;;;;;27.34;30.14;99647.91;5030387;28;20052;-68
2022/07/28 10:08:18;;;;;;;8.43;3.42;;;;;;;26.72;30.28;99638.25;5015354;28;20052;-69
2022/07/28 10:11:01;;;;;;;11.55;3.35;;;;;;;26.63;30.15;99632.09;5015285;28;20108;-68
2022/07/28 10:13:27;;;;;;;11.35;3.75;;;;;;;26.11;31.69;99643.59;5030485;28;20053;-68
2022/07/28 10:16:11;;;;;;;5.97;2.58;;;;;;;25.99;31.88;99637.78;5029908;28;20153;-68
2022/07/28 10:18:38;;;;;;;8.77;3.25;;;;;;;26.11;31.63;99635.50;5030194;28;20077;-68
2022/07/28 10:21:08;;;;;;;13.35;2.97;;;;;;;26.19;30.94;99631.88;5030401;28;20068;-68
2022/07/28 10:23:38;;;;;;;9.20;2.53;;;;;;;26.93;29.73;99634.84;5030566;28;20046;-67
2022/07/28 10:26:10;;;;;;;12.32;3.08;;;;;;;27.23;30.01;99632.16;5029723;28;20056;-67
2022/07/28 10:28:38;;;;;;;7.47;3.15;;;;;;;27.81;28.66;99628.53;5029891;28;20041;-68
2022/07/28 10:31:09;;;;;;;8.90;3.22;;;;;;;27.84;27.98;99635.47;5029791;28;20139;-67
2022/07/28 10:33:39;;;;;;;10.32;3.00;;;;;;;27.72;28.76;99634.25;5030160;28;20132;-67
2022/07/28 10:36:07;;;;;;;4.28;2.25;;;;;;;27.45;29.28;99633.09;5028966;28;20053;-68
2022/07/28 10:38:35;;;;;;;11.20;3.60;;;;;;;28.04;27.99;99620.25;5012394;28;20049;-67
2022/07/28 10:41:04;;;;;;;4.40;2.55;;;;;;;28.01;27.92;99615.22;5009754;28;20417;-68
2022/07/28 10:43:32;;;;;;;6.05;2.55;;;;;;;28.27;27.66;99622.75;5009523;28;20054;-67
2022/07/28 10:45:59;;;;;;;8.20;3.97;;;;;;;28.28;27.70;99612.78;5009341;28;20141;-68
2022/07/28 10:48:26;;;;;;;9.68;3.83;;;;;;;28.45;27.59;99616.06;5009763;28;20045;-68
2022/07/28 10:50:54;;;;;;;9.38;3.00;;;;;;;28.77;27.48;99611.94;5009545;28;20081;-68
2022/07/28 10:53:32;;;;;;;12.95;2.97;;;;;;;29.07;26.76;99614.47;5009741;28;20045;-68
2022/07/28 10:56:05;;;;;;;11.25;3.72;;;;;;;28.80;27.06;99611.53;5009085;28;20108;-67
2022/07/28 10:58:45;;;;;;;8.18;2.55;;;;;;;28.32;27.78;99611.31;5015504;28;20038;-68
2022/07/28 11:01:12;;;;;;;13.25;3.40;;;;;;;26.84;30.29;99619.69;5029506;28;20140;-67
2022/07/28 11:03:41;;;;;;;11.05;3.28;;;;;;;26.15;30.65;99619.78;5029313;28;20489;-67
2022/07/28 11:06:24;;;;;;;9.10;2.70;;;;;;;26.28;31.46;99612.72;5019953;28;20740;-69
2022/07/28 11:08:52;;;;;;;10.65;3.08;;;;;;;26.28;30.64;99611.91;5027798;28;20046;-68
2022/07/28 11:11:42;;;;;;;8.10;3.03;;;;;;;25.95;30.98;99611.31;5029534;28;20114;-69
2022/07/28 11:14:35;;;;;;;7.43;2.60;;;;;;;25.58;31.36;99610.97;5029144;28;20049;-67
2022/07/28 11:17:14;;;;;;;9.40;3.03;;;;;;;25.17;32.33;99611.16;5015146;28;20057;-68
2022/07/28 11:19:57;;;;;;;5.55;2.25;;;;;;;24.84;33.26;99613.91;5029050;28;20046;-67
2022/07/28 11:22:32;;;;;;;7.80;2.40;;;;;;;24.57;33.95;99606.22;5028955;28;20427;-67
2022/07/28 11:25:11;;;;;;;;;;;;;;;24.59;33.78;99596.13;5028878;28;20524;-67
2022/07/28 11:28:05;;;;;;;6.88;3.22;;;;;;;24.79;33.47;99600.13;5029067;28;19921;-68
2022/07/28 11:30:53;;;;;;;13.50;3.25;;;;;;;24.69;33.74;99602.16;4993487;28;20080;-66
2022/07/28 11:33:20;;;;;;;11.88;3.35;;;;;;;24.65;33.70;99603.50;5029106;28;20076;-67
2022/07/28 11:35:58;;;;;;;8.02;2.25;;;;;;;24.61;34.31;99597.63;5028279;28;20050;-67
2022/07/28 11:38:25;;;;;;;5.53;2.20;;;;;;;24.71;34.22;99592.06;5028771;28;20046;-68
2022/07/28 11:40:54;;;;;;;7.20;2.53;;;;;;;24.48;34.04;99591.06;5028776;28;20131;-69
2022/07/28 11:43:32;;;;;;;8.15;2.58;;;;;;;24.33;34.37;99593.56;5028765;28;20057;-67